createdAt,value
2022-11-04T00:00:10.666Z,9.99
2022-11-04T00:02:37.347Z,9.88
2022-11-04T00:05:04.183Z,9.90
2022-11-04T00:07:49.255Z,9.95
2022-11-04T00:10:15.852Z,9.85
2022-11-04T00:12:42.403Z,9.85
2022-11-04T00:15:27.704Z,9.86
2022-11-04T00:17:54.328Z,9.74
2022-11-04T00:20:39.309Z,9.79
2022-11-04T00:23:24.257Z,9.77
2022-11-04T00:26:10.521Z,9.78
2022-11-04T00:28:43.065Z,9.76
2022-11-04T00:31:29.104Z,9.70
2022-11-04T00:33:58.428Z,9.79
2022-11-04T00:36:25.730Z,9.69
2022-11-04T00:38:52.387Z,9.58
2022-11-04T00:41:28.272Z,9.54
2022-11-04T00:44:00.479Z,9.58
2022-11-04T00:46:28.669Z,9.51
2022-11-04T00:48:55.602Z,9.48
2022-11-04T00:51:22.854Z,9.46
2022-11-04T00:53:50.399Z,9.45
2022-11-04T00:56:17.001Z,9.44
2022-11-04T00:58:43.825Z,9.47
2022-11-04T01:01:12.274Z,9.44
2022-11-04T01:03:39.512Z,9.44
2022-11-04T01:06:06.438Z,9.34
2022-11-04T01:08:33.083Z,9.22
2022-11-04T01:11:06.982Z,9.22
2022-11-04T01:13:34.104Z,9.24
2022-11-04T01:16:01.664Z,9.23
2022-11-04T01:18:28.899Z,9.12
2022-11-04T01:20:55.643Z,9.14
2022-11-04T01:23:22.231Z,9.12
2022-11-04T01:25:48.824Z,9.08
2022-11-04T01:28:15.520Z,8.99
2022-11-04T01:30:42.093Z,8.97
2022-11-04T01:33:08.669Z,8.96
2022-11-04T01:35:35.314Z,8.75
2022-11-04T01:38:01.905Z,8.67
2022-11-04T01:40:28.559Z,8.62
2022-11-04T01:42:55.123Z,8.59
2022-11-04T01:45:24.391Z,8.47
2022-11-04T01:48:09.800Z,8.50
2022-11-04T01:50:37.439Z,8.42
2022-11-04T01:53:13.218Z,8.37
2022-11-04T01:55:55.829Z,8.31
2022-11-04T01:58:26.796Z,8.29
2022-11-04T02:00:53.414Z,8.31
2022-11-04T02:03:34.256Z,8.34
2022-11-04T02:06:02.668Z,8.29
2022-11-04T02:08:29.983Z,8.27
2022-11-04T02:11:00.605Z,8.34
2022-11-04T02:13:28.756Z,8.36
2022-11-04T02:16:28.636Z,8.36
2022-11-04T02:19:36.587Z,8.19
2022-11-04T02:22:12.029Z,8.21
2022-11-04T02:24:47.383Z,8.21
2022-11-04T02:27:20.051Z,8.19
2022-11-04T02:29:52.527Z,8.23
2022-11-04T02:32:34.701Z,8.25
2022-11-04T02:35:38.542Z,8.16
2022-11-04T02:38:30.049Z,8.21
2022-11-04T02:41:05.436Z,8.09
2022-11-04T02:43:41.431Z,8.09
2022-11-04T02:46:22.321Z,8.10
2022-11-04T02:48:54.937Z,8.24
2022-11-04T02:51:31.324Z,8.18
2022-11-04T02:54:16.904Z,8.19
2022-11-04T02:56:51.183Z,8.25
2022-11-04T02:59:23.118Z,8.29
2022-11-04T03:01:53.422Z,8.32
2022-11-04T03:04:28.162Z,8.29
2022-11-04T03:06:56.308Z,8.19
2022-11-04T03:09:23.700Z,8.09
2022-11-04T03:11:55.452Z,8.16
2022-11-04T03:14:35.465Z,8.09
2022-11-04T03:17:08.838Z,8.12
2022-11-04T03:19:47.119Z,8.05
2022-11-04T03:22:20.676Z,7.93
2022-11-04T03:24:49.389Z,7.94
2022-11-04T03:27:37.367Z,7.98
2022-11-04T03:30:14.919Z,7.70
2022-11-04T03:33:11.485Z,7.76
2022-11-04T03:35:38.471Z,7.72
2022-11-04T03:38:05.576Z,7.78
2022-11-04T03:40:32.189Z,7.83
2022-11-04T03:43:08.929Z,7.79
2022-11-04T03:45:36.803Z,7.74
2022-11-04T03:48:03.812Z,7.82
2022-11-04T03:50:33.103Z,7.77
2022-11-04T03:53:00.461Z,7.83
2022-11-04T03:55:48.593Z,7.96
2022-11-04T03:58:31.485Z,7.88
2022-11-04T04:01:31.681Z,7.95
2022-11-04T04:04:06.868Z,8.06
2022-11-04T04:27:16.563Z,8.91
2022-11-04T04:29:45.819Z,8.74
2022-11-04T04:32:14.489Z,8.66
2022-11-04T04:34:41.542Z,8.52
2022-11-04T04:37:23.240Z,8.46
2022-11-04T04:40:23.847Z,8.41
2022-11-04T04:43:12.198Z,8.24
2022-11-04T04:45:42.473Z,8.18
2022-11-04T04:48:12.688Z,8.09
2022-11-04T04:50:45.945Z,8.18
2022-11-04T04:53:13.154Z,8.16
2022-11-04T04:55:41.693Z,8.14
2022-11-04T04:58:09.372Z,8.00
2022-11-04T05:00:36.271Z,8.11
2022-11-04T05:03:02.945Z,8.10
2022-11-04T05:05:29.564Z,8.11
2022-11-04T05:07:56.434Z,8.07
2022-11-04T05:10:23.056Z,7.97
2022-11-04T05:13:08.439Z,8.07
2022-11-04T05:15:35.117Z,8.03
2022-11-04T05:18:02.553Z,8.11
2022-11-04T05:20:30.507Z,8.16
2022-11-04T05:22:57.407Z,8.25
2022-11-04T05:25:24.295Z,8.40
2022-11-04T05:27:50.933Z,8.55
2022-11-04T05:30:17.911Z,8.82
2022-11-04T05:32:44.531Z,9.06
2022-11-04T05:35:11.214Z,9.23
2022-11-04T05:37:37.854Z,9.36
2022-11-04T05:40:05.039Z,9.87
2022-11-04T05:42:32.124Z,10.18
2022-11-04T05:44:58.753Z,10.64
2022-11-04T05:47:25.455Z,11.05
2022-11-04T05:49:52.421Z,11.55
2022-11-04T05:52:19.050Z,11.89
2022-11-04T05:54:45.658Z,12.40
2022-11-04T05:57:12.337Z,12.66
2022-11-04T05:59:39.196Z,12.74
2022-11-04T06:02:06.290Z,13.01
2022-11-04T06:04:33.615Z,13.08
2022-11-04T06:07:00.894Z,13.16
2022-11-04T06:09:39.526Z,13.06
2022-11-04T06:12:11.578Z,13.27
2022-11-04T06:14:38.303Z,13.38
2022-11-04T06:17:07.587Z,13.50
2022-11-04T06:19:34.263Z,13.46
2022-11-04T06:22:00.833Z,13.20
2022-11-04T06:24:27.434Z,12.95
2022-11-04T06:26:54.046Z,13.13
2022-11-04T06:29:20.764Z,12.66
2022-11-04T06:31:47.453Z,12.02
2022-11-04T06:34:14.640Z,12.09
2022-11-04T06:36:41.839Z,12.14
2022-11-04T06:39:08.916Z,12.15
2022-11-04T06:41:36.241Z,11.59
2022-11-04T06:44:03.037Z,11.54
2022-11-04T06:46:38.696Z,11.22
2022-11-04T06:49:07.059Z,11.11
2022-11-04T06:51:33.903Z,11.21
2022-11-04T06:54:00.813Z,11.22
2022-11-04T06:56:27.574Z,11.25
2022-11-04T06:58:55.405Z,11.12
2022-11-04T07:01:24.481Z,11.16
2022-11-04T07:03:57.206Z,11.12
2022-11-04T07:06:24.870Z,11.06
2022-11-04T07:08:53.412Z,11.28
2022-11-04T07:11:22.067Z,11.20
2022-11-04T07:13:49.456Z,11.13
2022-11-04T07:16:17.335Z,11.29
2022-11-04T07:18:44.315Z,11.47
2022-11-04T07:21:12.838Z,11.31
2022-11-04T07:23:39.649Z,11.56
2022-11-04T07:26:08.658Z,11.41
2022-11-04T07:28:35.655Z,11.72
2022-11-04T07:31:03.762Z,11.85
2022-11-04T07:33:30.825Z,11.89
2022-11-04T07:35:58.562Z,11.86
2022-11-04T07:38:25.502Z,12.30
2022-11-04T07:40:52.417Z,12.41
2022-11-04T07:43:19.300Z,12.55
2022-11-04T07:45:46.138Z,12.69
2022-11-04T07:48:12.940Z,12.72
2022-11-04T07:50:40.763Z,12.73
2022-11-04T07:53:08.191Z,12.93
2022-11-04T07:55:43.225Z,13.03
2022-11-04T07:58:10.223Z,13.15
2022-11-04T08:00:36.855Z,13.37
2022-11-04T08:03:03.741Z,13.67
2022-11-04T08:05:30.671Z,13.66
2022-11-04T08:07:57.981Z,13.58
2022-11-04T08:10:24.864Z,13.54
2022-11-04T08:12:52.704Z,13.53
2022-11-04T08:15:19.383Z,13.73
2022-11-04T08:17:46.124Z,13.91
2022-11-04T08:20:13.308Z,14.10
2022-11-04T08:22:40.200Z,14.25
2022-11-04T08:25:07.339Z,14.41
2022-11-04T08:27:34.869Z,14.06
2022-11-04T08:30:02.303Z,13.69
2022-11-04T08:32:29.710Z,13.42
2022-11-04T08:34:56.973Z,14.11
2022-11-04T08:37:23.995Z,13.61
2022-11-04T08:39:50.756Z,13.40
2022-11-04T08:42:18.024Z,13.96
2022-11-04T08:44:44.993Z,13.23
2022-11-04T08:47:11.837Z,13.65
2022-11-04T08:49:41.194Z,13.91
2022-11-04T08:52:08.501Z,14.35
2022-11-04T08:54:35.769Z,14.46
2022-11-04T08:57:03.724Z,14.01
2022-11-04T08:59:30.834Z,14.27
2022-11-04T09:01:57.571Z,14.57
2022-11-04T09:04:24.302Z,14.67
2022-11-04T09:06:52.698Z,14.95
2022-11-04T09:09:20.108Z,14.99
2022-11-04T09:11:47.428Z,14.94
2022-11-04T09:14:15.011Z,14.93
2022-11-04T09:16:42.121Z,15.14
2022-11-04T09:19:09.234Z,15.36
2022-11-04T09:21:36.656Z,15.54
2022-11-04T09:24:03.348Z,15.58
2022-11-04T09:26:30.187Z,15.71
2022-11-04T09:28:58.275Z,15.93
2022-11-04T09:31:26.763Z,16.27
2022-11-04T09:33:54.963Z,16.15
2022-11-04T09:36:22.398Z,16.01
2022-11-04T09:38:49.829Z,15.42
2022-11-04T09:41:42.398Z,15.82
2022-11-04T09:44:28.904Z,16.12
2022-11-04T09:47:00.082Z,16.00
2022-11-04T09:49:32.749Z,15.91
2022-11-04T09:52:02.316Z,16.46
2022-11-04T09:54:47.330Z,16.27
2022-11-04T09:57:19.186Z,16.04
2022-11-04T09:59:47.451Z,16.53
2022-11-04T10:02:32.210Z,17.04
2022-11-04T10:05:29.407Z,17.09
2022-11-04T10:08:25.168Z,16.69
2022-11-04T10:11:22.322Z,16.73
2022-11-04T10:13:52.010Z,16.68
2022-11-04T10:16:25.508Z,16.71
2022-11-04T10:19:32.434Z,17.16
2022-11-04T10:22:04.132Z,17.22
2022-11-04T10:24:42.845Z,16.91
2022-11-04T10:27:17.352Z,16.44
2022-11-04T10:29:52.888Z,16.77
2022-11-04T10:32:35.696Z,16.73
2022-11-04T10:35:17.829Z,17.10
2022-11-04T10:37:47.247Z,17.18
2022-11-04T10:40:37.659Z,16.72
2022-11-04T10:43:10.895Z,16.74
2022-11-04T10:45:48.297Z,16.67
2022-11-04T10:48:30.131Z,17.02
2022-11-04T10:50:59.027Z,17.17
2022-11-04T10:53:31.567Z,17.08
2022-11-04T10:56:17.047Z,17.25
2022-11-04T10:58:47.353Z,17.17
2022-11-04T11:01:29.984Z,17.19
2022-11-04T11:03:57.800Z,16.91
2022-11-04T11:06:30.762Z,16.99
2022-11-04T11:09:01.463Z,17.07
2022-11-04T11:11:47.453Z,17.53
2022-11-04T11:14:17.351Z,17.65
2022-11-04T11:16:45.783Z,17.88
2022-11-04T11:19:12.371Z,17.98
2022-11-04T11:21:50.797Z,17.61
2022-11-04T11:24:27.570Z,17.70
2022-11-04T11:27:00.069Z,17.56
2022-11-04T11:29:40.565Z,17.92
2022-11-04T11:32:28.359Z,17.97
2022-11-04T11:34:55.103Z,18.00
2022-11-04T11:37:25.966Z,17.99
2022-11-04T11:39:52.825Z,18.05
2022-11-04T11:42:20.962Z,18.09
2022-11-04T11:44:50.839Z,18.13
2022-11-04T11:47:30.746Z,18.28
2022-11-04T11:50:18.232Z,18.37
2022-11-04T11:52:46.828Z,18.67
2022-11-04T11:55:28.850Z,18.74
2022-11-04T12:01:03.528Z,18.54
2022-11-04T12:10:18.563Z,18.47
2022-11-04T12:13:23.385Z,18.23
2022-11-04T12:16:09.579Z,18.22
2022-11-04T12:18:54.257Z,18.24
2022-11-04T12:21:35.832Z,18.04
2022-11-04T12:24:39.722Z,18.11
2022-11-04T12:27:14.357Z,18.30
2022-11-04T12:30:07.699Z,18.40
2022-11-04T12:32:48.076Z,18.51
2022-11-04T12:35:36.970Z,18.60
2022-11-04T12:38:16.586Z,18.84
2022-11-04T12:41:04.865Z,19.02
2022-11-04T12:44:02.488Z,18.99
2022-11-04T12:46:46.733Z,18.66
2022-11-04T12:49:25.233Z,18.49
2022-11-04T12:52:15.251Z,18.45
2022-11-04T12:54:57.119Z,18.52
2022-11-04T12:58:02.176Z,18.47
2022-11-04T13:00:31.265Z,18.46
2022-11-04T13:03:08.860Z,18.40
2022-11-04T13:06:02.444Z,18.33
2022-11-04T13:08:39.467Z,18.22
2022-11-04T13:11:25.103Z,18.20
2022-11-04T13:14:00.464Z,18.31
2022-11-04T13:16:29.101Z,18.25
2022-11-04T13:18:58.068Z,18.25
2022-11-04T13:21:28.206Z,18.55
2022-11-04T13:24:01.438Z,18.37
2022-11-04T13:26:28.300Z,18.70
2022-11-04T13:29:11.223Z,18.83
2022-11-04T13:31:54.244Z,18.99
2022-11-04T13:34:36.185Z,19.01
2022-11-04T13:37:12.921Z,18.88
2022-11-04T13:39:59.752Z,18.74
2022-11-04T13:42:52.308Z,18.67
2022-11-04T13:45:20.661Z,18.62
2022-11-04T13:47:53.485Z,18.58
2022-11-04T13:50:38.950Z,18.43
2022-11-04T13:53:09.570Z,18.16
2022-11-04T13:55:47.909Z,18.30
2022-11-04T13:58:24.009Z,18.38
2022-11-04T14:01:12.066Z,18.46
2022-11-04T14:03:59.454Z,18.48
2022-11-04T14:07:04.431Z,18.53
2022-11-04T14:09:43.236Z,18.43
2022-11-04T14:12:17.428Z,18.28
2022-11-04T14:14:47.865Z,18.22
2022-11-04T14:17:33.022Z,18.44
2022-11-04T14:20:06.232Z,18.18
2022-11-04T14:22:43.599Z,18.26
2022-11-04T14:25:22.544Z,18.10
2022-11-04T14:28:00.133Z,17.94
2022-11-04T14:30:59.096Z,17.94
2022-11-04T14:33:54.066Z,18.02
2022-11-04T14:36:20.925Z,17.87
2022-11-04T14:39:21.077Z,17.63
2022-11-04T14:42:02.421Z,17.67
2022-11-04T14:44:50.291Z,17.20
2022-11-04T14:47:26.223Z,17.45
2022-11-04T14:50:01.022Z,17.41
2022-11-04T14:52:39.066Z,17.30
2022-11-04T14:55:14.079Z,17.23
2022-11-04T14:57:52.086Z,17.13
2022-11-04T15:00:23.428Z,16.90
2022-11-04T15:03:45.582Z,16.85
2022-11-04T15:06:03.538Z,16.66
2022-11-04T15:08:42.417Z,16.70
2022-11-04T15:11:38.640Z,16.61
2022-11-04T15:14:15.245Z,16.59
2022-11-04T15:16:45.932Z,16.50
2022-11-04T15:19:18.273Z,16.48
2022-11-04T15:21:48.365Z,16.37
2022-11-04T15:24:17.613Z,16.23
2022-11-04T15:26:51.142Z,16.07
2022-11-04T15:29:19.770Z,16.04
2022-11-04T15:32:05.839Z,15.92
2022-11-04T15:34:34.140Z,15.77
2022-11-04T15:37:06.355Z,15.66
2022-11-04T15:39:43.494Z,15.47
2022-11-04T15:42:43.815Z,15.48
2022-11-04T15:45:22.681Z,15.43
2022-11-04T15:47:50.875Z,15.33
2022-11-04T15:50:26.027Z,15.32
2022-11-04T15:52:56.127Z,15.11
2022-11-04T15:55:25.942Z,15.18
2022-11-04T15:57:53.554Z,15.05
2022-11-04T16:00:24.792Z,15.05
2022-11-04T16:02:57.443Z,14.88
2022-11-04T16:05:29.011Z,14.92
2022-11-04T16:08:14.025Z,14.63
2022-11-04T16:10:41.086Z,14.75
2022-11-04T16:13:17.446Z,14.67
2022-11-04T16:15:51.058Z,14.44
2022-11-04T16:18:34.356Z,14.47
2022-11-04T16:21:14.546Z,14.26
2022-11-04T16:23:51.292Z,14.20
2022-11-04T16:26:26.070Z,14.23
2022-11-04T16:28:58.600Z,14.03
2022-11-04T16:31:34.672Z,14.12
2022-11-04T16:34:01.818Z,13.94
2022-11-04T16:36:33.984Z,13.92
2022-11-04T16:39:09.114Z,13.57
2022-11-04T16:41:40.974Z,13.60
2022-11-04T16:44:20.133Z,13.72
2022-11-04T16:46:46.828Z,13.44
2022-11-04T16:49:19.916Z,13.54
2022-11-04T16:51:49.686Z,13.54
2022-11-04T16:54:16.707Z,13.46
2022-11-04T16:56:44.032Z,13.48
2022-11-04T16:59:12.180Z,13.34
2022-11-04T17:01:42.263Z,13.44
2022-11-04T17:04:09.562Z,13.46
2022-11-04T17:06:36.552Z,13.42
2022-11-04T17:09:03.925Z,13.44
2022-11-04T17:11:30.483Z,13.44
2022-11-04T17:13:57.286Z,13.14
2022-11-04T17:16:24.634Z,13.10
2022-11-04T17:18:51.367Z,13.22
2022-11-04T17:21:20.371Z,12.91
2022-11-04T17:23:47.197Z,12.78
2022-11-04T17:26:14.386Z,12.85
2022-11-04T17:28:41.415Z,12.88
2022-11-04T17:31:08.402Z,13.00
2022-11-04T17:33:35.077Z,13.02
2022-11-04T17:36:07.492Z,12.96
2022-11-04T17:38:34.490Z,12.93
2022-11-04T17:41:19.928Z,12.91
2022-11-04T17:44:01.735Z,12.85
2022-11-04T17:46:37.796Z,12.78
2022-11-04T17:49:07.280Z,12.91
2022-11-04T17:51:34.394Z,12.91
2022-11-04T17:54:01.222Z,12.83
2022-11-04T17:56:28.561Z,12.96
2022-11-04T17:58:55.341Z,12.70
2022-11-04T18:01:23.328Z,12.86
2022-11-04T18:03:52.510Z,12.73
2022-11-04T18:06:20.819Z,12.69
2022-11-04T18:08:47.893Z,12.72
2022-11-04T18:11:35.249Z,12.62
2022-11-04T18:14:02.125Z,12.56
2022-11-04T18:16:29.340Z,12.59
2022-11-04T18:18:58.675Z,12.59
2022-11-04T18:21:26.036Z,12.35
2022-11-04T18:23:52.865Z,11.96
2022-11-04T18:26:19.736Z,12.51
2022-11-04T18:28:46.499Z,12.40
2022-11-04T18:31:22.313Z,12.42
2022-11-04T18:33:48.968Z,12.60
2022-11-04T18:36:15.956Z,12.61
2022-11-04T18:38:42.567Z,12.53
2022-11-04T18:41:10.049Z,12.51
2022-11-04T18:43:36.721Z,12.37
2022-11-04T18:46:14.893Z,12.27
2022-11-04T18:48:42.819Z,12.07
2022-11-04T18:51:12.140Z,12.14
2022-11-04T18:53:38.810Z,11.99
2022-11-04T18:56:11.071Z,11.92
2022-11-04T18:58:39.056Z,11.91
2022-11-04T19:01:11.847Z,11.88
2022-11-04T19:03:38.586Z,11.94
2022-11-04T19:06:11.236Z,12.01
2022-11-04T19:08:45.292Z,11.83
2022-11-04T19:11:28.339Z,11.78
2022-11-04T19:13:58.508Z,11.70
2022-11-04T19:16:26.590Z,11.63
2022-11-04T19:18:55.265Z,11.77
2022-11-04T19:21:24.435Z,11.64
2022-11-04T19:23:51.410Z,11.69
2022-11-04T19:26:22.289Z,11.65
2022-11-04T19:28:50.419Z,11.67
2022-11-04T19:31:20.310Z,11.62
2022-11-04T19:33:48.923Z,11.49
2022-11-04T19:36:17.050Z,11.71
2022-11-04T19:38:46.818Z,11.79
2022-11-04T19:41:34.380Z,11.77
2022-11-04T19:44:02.103Z,11.66
2022-11-04T19:46:28.970Z,11.72
2022-11-04T19:48:56.754Z,11.83
2022-11-04T19:51:29.253Z,11.86
2022-11-04T19:53:58.614Z,11.88
2022-11-04T19:56:25.442Z,11.85
2022-11-04T19:58:52.128Z,11.86
2022-11-04T20:01:19.472Z,11.60
2022-11-04T20:03:46.190Z,11.47
2022-11-04T20:06:14.910Z,11.55
2022-11-04T20:08:43.272Z,11.39
2022-11-04T20:11:10.634Z,11.30
2022-11-04T20:13:49.164Z,11.21
2022-11-04T20:16:17.938Z,11.15
2022-11-04T20:18:50.897Z,11.14
2022-11-04T20:21:19.686Z,11.08
2022-11-04T20:23:47.149Z,11.02
2022-11-04T20:26:20.585Z,11.10
2022-11-04T20:28:47.806Z,11.01
2022-11-04T20:31:21.101Z,10.93
2022-11-04T20:33:49.268Z,10.76
2022-11-04T20:36:18.557Z,10.77
2022-11-04T20:38:47.608Z,10.88
2022-11-04T20:41:19.881Z,10.85
2022-11-04T20:43:47.151Z,10.86
2022-11-04T20:46:16.690Z,10.84
2022-11-04T20:48:43.534Z,10.88
2022-11-04T20:51:12.684Z,10.88
2022-11-04T20:53:40.448Z,10.92
2022-11-04T20:56:10.665Z,10.84
2022-11-04T20:58:39.023Z,10.89
2022-11-04T21:01:17.936Z,10.84
2022-11-04T21:03:45.012Z,10.71
2022-11-04T21:06:12.045Z,10.92
2022-11-04T21:08:38.965Z,10.90
2022-11-04T21:11:06.803Z,11.05
2022-11-04T21:13:34.069Z,11.09
2022-11-04T21:16:01.912Z,11.12
2022-11-04T21:18:29.497Z,10.97
2022-11-04T21:20:57.389Z,11.06
2022-11-04T21:23:25.767Z,11.14
2022-11-04T21:25:57.905Z,11.26
2022-11-04T21:28:26.034Z,11.27
2022-11-04T21:30:54.137Z,11.27
2022-11-04T21:33:21.001Z,11.34
2022-11-04T21:35:51.026Z,11.34
2022-11-04T21:38:18.761Z,11.32
2022-11-04T21:40:46.447Z,11.29
2022-11-04T21:43:13.371Z,11.27
2022-11-04T21:45:40.229Z,11.20
2022-11-04T21:48:07.754Z,11.28
2022-11-04T21:50:34.669Z,10.96
2022-11-04T21:53:01.429Z,11.06
2022-11-04T21:55:28.142Z,11.06
2022-11-04T21:57:54.768Z,10.96
2022-11-04T22:00:21.633Z,11.03
2022-11-04T22:02:51.136Z,11.07
2022-11-04T22:05:18.020Z,11.04
2022-11-04T22:08:03.092Z,10.97
2022-11-04T22:10:29.657Z,10.83
2022-11-04T22:12:56.566Z,10.86
2022-11-04T22:15:41.745Z,10.83
2022-11-04T22:18:08.721Z,10.63
2022-11-04T22:20:36.590Z,10.77
2022-11-04T22:23:03.579Z,10.64
2022-11-04T22:25:31.355Z,10.76
2022-11-04T22:27:58.048Z,10.82
2022-11-04T22:30:25.678Z,10.85
2022-11-04T22:32:53.147Z,10.87
2022-11-04T22:35:19.797Z,10.81
2022-11-04T22:37:46.601Z,10.79
2022-11-04T22:40:13.434Z,10.77
2022-11-04T22:42:40.092Z,10.74
2022-11-04T22:45:07.774Z,10.67
2022-11-04T22:47:36.826Z,10.68
2022-11-04T22:50:04.015Z,10.70
2022-11-04T22:52:31.778Z,10.55
2022-11-04T22:54:58.363Z,10.67
2022-11-04T22:57:25.217Z,10.73
2022-11-04T22:59:51.842Z,10.72
2022-11-04T23:02:18.690Z,10.70
2022-11-04T23:04:45.423Z,10.58
2022-11-04T23:07:12.089Z,10.60
2022-11-04T23:09:58.643Z,10.70
2022-11-04T23:12:44.036Z,10.70
2022-11-04T23:15:29.310Z,10.48
2022-11-04T23:18:14.536Z,10.51
2022-11-04T23:20:41.405Z,10.53
2022-11-04T23:23:26.802Z,10.55
2022-11-04T23:25:53.706Z,10.54
2022-11-04T23:28:38.802Z,10.51
2022-11-04T23:31:05.489Z,10.28
2022-11-04T23:33:50.620Z,10.30
2022-11-04T23:36:36.965Z,10.06
2022-11-04T23:39:03.936Z,10.15
2022-11-04T23:41:49.334Z,10.27
2022-11-04T23:44:35.937Z,10.08
2022-11-04T23:47:21.413Z,9.99
2022-11-04T23:50:06.742Z,10.02
2022-11-04T23:52:52.335Z,9.98
2022-11-04T23:55:37.819Z,10.01
2022-11-04T23:58:23.173Z,10.03
